Time;durP1;ratioP1;P1;durP2;ratioP2;P2;SDS_P1;SDS_P2;PMS_P1;PMS_P2;Temp;Humidity;BMP_temperature;BMP_pressure;BME280_temperature;BME280_humidity;BME280_pressure;Samples;Min_cycle;Max_cycle;Signal;HPM_P1;HPM_P2
2024/02/02 00:00:36;;;;;;;4.32;2.28;;;10.60;86.80;;;;;;5025385;28;20036;-74
2024/02/02 00:03:02;;;;;;;2.92;1.52;;;10.70;86.60;;;;;;5057964;28;20033;-73
2024/02/02 00:05:29;;;;;;;1.80;1.63;;;10.70;86.50;;;;;;5040836;28;20399;-75
2024/02/02 00:07:55;;;;;;;2.33;1.75;;;10.60;86.30;;;;;;5042654;28;20041;-73
2024/02/02 00:10:23;;;;;;;2.30;2.08;;;10.60;86.40;;;;;;5026816;28;20552;-73
2024/02/02 00:12:49;;;;;;;6.47;1.85;;;10.60;86.10;;;;;;5036826;28;20032;-74
2024/02/02 00:15:15;;;;;;;2.50;1.70;;;10.60;86.00;;;;;;5042752;28;20037;-74
2024/02/02 00:17:41;;;;;;;3.22;2.35;;;10.60;86.10;;;;;;5056370;28;20156;-74
2024/02/02 00:20:08;;;;;;;1.65;1.55;;;10.60;86.00;;;;;;5056224;28;20059;-74
2024/02/02 00:22:34;;;;;;;2.53;1.75;;;10.60;85.80;;;;;;5055088;28;20077;-74
2024/02/02 00:25:00;;;;;;;1.75;1.45;;;10.60;85.90;;;;;;5056082;28;20131;-74
2024/02/02 00:27:26;;;;;;;2.45;1.63;;;10.60;85.70;;;;;;5054108;28;20616;-75
2024/02/02 00:29:52;;;;;;;1.90;1.70;;;10.60;85.70;;;;;;5055358;28;20032;-74
2024/02/02 00:32:18;;;;;;;1.70;1.55;;;10.60;85.60;;;;;;5056972;28;20818;-75
2024/02/02 00:34:44;;;;;;;1.88;1.67;;;10.60;85.50;;;;;;5047216;28;20036;-74
2024/02/02 00:37:11;;;;;;;4.50;1.90;;;10.60;85.50;;;;;;5065275;28;20071;-74
2024/02/02 00:39:38;;;;;;;1.70;1.60;;;10.60;85.50;;;;;;5042253;28;20369;-74
2024/02/02 00:42:04;;;;;;;2.38;1.83;;;10.60;85.30;;;;;;5055934;28;20053;-75
2024/02/02 00:44:30;;;;;;;2.00;1.50;;;10.60;85.30;;;;;;5056104;28;20045;-74
2024/02/02 00:46:56;;;;;;;2.03;1.55;;;10.60;85.30;;;;;;5056987;28;20035;-74
2024/02/02 00:49:25;;;;;;;1.83;1.70;;;10.60;85.60;;;;;;5054284;28;20039;-74
2024/02/02 00:51:51;;;;;;;1.90;1.70;;;10.60;85.60;;;;;;5055648;28;20487;-75
2024/02/02 00:54:17;;;;;;;1.70;1.60;;;10.60;85.30;;;;;;5037178;28;20039;-73
2024/02/02 00:56:43;;;;;;;2.17;1.98;;;10.50;85.20;;;;;;5055889;28;20059;-73
2024/02/02 00:59:09;;;;;;;2.40;1.60;;;10.50;84.90;;;;;;5058621;28;20041;-73
2024/02/02 01:01:35;;;;;;;1.60;1.50;;;10.50;84.80;;;;;;5057978;28;20029;-73
2024/02/02 01:04:02;;;;;;;1.88;1.52;;;10.50;84.70;;;;;;5060968;28;20032;-73
2024/02/02 01:06:28;;;;;;;1.50;1.40;;;10.50;84.70;;;;;;5059356;28;20046;-74
2024/02/02 01:08:54;;;;;;;1.75;1.65;;;10.50;84.70;;;;;;5045354;28;20029;-73
2024/02/02 01:11:20;;;;;;;3.80;1.60;;;10.50;84.70;;;;;;5059831;28;20029;-75
2024/02/02 01:13:47;;;;;;;1.48;1.38;;;10.50;84.70;;;;;;5041958;28;20499;-75
2024/02/02 01:16:13;;;;;;;1.92;1.73;;;10.50;84.60;;;;;;5046393;28;20068;-74
2024/02/02 01:18:39;;;;;;;1.80;1.65;;;10.50;84.50;;;;;;5061113;28;20133;-73
2024/02/02 01:21:05;;;;;;;1.70;1.60;;;10.50;84.40;;;;;;5060241;28;20047;-73
2024/02/02 01:23:31;;;;;;;2.05;1.80;;;10.50;84.20;;;;;;5058223;28;20036;-74
2024/02/02 01:25:57;;;;;;;2.67;1.27;;;10.50;84.40;;;;;;5046093;28;20043;-73
2024/02/02 01:28:23;;;;;;;1.85;1.50;;;10.50;84.20;;;;;;5011879;28;20040;-73
2024/02/02 01:30:49;;;;;;;1.80;1.60;;;10.50;84.20;;;;;;5058739;28;20063;-73
2024/02/02 01:33:15;;;;;;;2.17;1.58;;;10.50;84.10;;;;;;5059207;28;20028;-73
2024/02/02 01:35:41;;;;;;;1.92;1.50;;;10.50;84.20;;;;;;5058171;28;20036;-73
2024/02/02 01:38:08;;;;;;;1.80;1.70;;;10.50;84.20;;;;;;5058231;28;20078;-72
2024/02/02 01:40:34;;;;;;;1.65;1.50;;;10.50;84.10;;;;;;5041076;28;20582;-73
2024/02/02 01:43:00;;;;;;;3.53;1.73;;;10.50;84.20;;;;;;5058297;28;20115;-75
2024/02/02 01:45:26;;;;;;;3.50;1.50;;;10.50;84.10;;;;;;5057087;28;20041;-75
2024/02/02 01:47:52;;;;;;;1.70;1.60;;;10.50;84.00;;;;;;5059265;28;20040;-74
2024/02/02 01:50:18;;;;;;;2.38;1.60;;;10.50;84.00;;;;;;5040745;28;20135;-75
2024/02/02 01:52:44;;;;;;;1.67;1.58;;;10.50;84.10;;;;;;5028264;28;20036;-75
2024/02/02 01:55:10;;;;;;;1.50;1.40;;;10.50;83.90;;;;;;5058979;28;20036;-75
2024/02/02 01:57:39;;;;;;;1.90;1.80;;;10.50;84.10;;;;;;5057496;28;20043;-75
2024/02/02 02:00:05;;;;;;;1.50;1.40;;;10.40;83.80;;;;;;5027137;28;20047;-74
2024/02/02 02:02:36;;;;;;;1.42;1.20;;;10.50;83.80;;;;;;5057790;28;20194;-74
2024/02/02 02:05:03;;;;;;;2.10;1.40;;;10.50;83.80;;;;;;5057815;28;20041;-74
2024/02/02 02:07:29;;;;;;;1.70;1.48;;;10.50;83.80;;;;;;5039715;28;20544;-74
2024/02/02 02:09:55;;;;;;;1.63;1.40;;;10.50;83.80;;;;;;5021061;28;20121;-74
2024/02/02 02:12:22;;;;;;;2.17;1.25;;;10.40;83.80;;;;;;5057377;28;20040;-74
2024/02/02 02:14:48;;;;;;;1.65;1.38;;;10.40;83.70;;;;;;5043935;28;20605;-73
2024/02/02 02:17:14;;;;;;;1.33;1.20;;;10.50;83.80;;;;;;5044411;28;20207;-74
2024/02/02 02:19:40;;;;;;;1.40;1.30;;;10.50;83.70;;;;;;5021972;28;20040;-74
2024/02/02 02:22:06;;;;;;;1.45;1.30;;;10.40;83.60;;;;;;5044041;28;20091;-74
2024/02/02 02:24:32;;;;;;;1.70;1.48;;;10.40;83.80;;;;;;5058091;28;20081;-74
2024/02/02 02:26:58;;;;;;;1.42;1.33;;;10.50;83.80;;;;;;5057221;28;20082;-74
2024/02/02 02:29:24;;;;;;;1.50;1.20;;;10.50;83.80;;;;;;5059936;28;20025;-74
2024/02/02 02:31:53;;;;;;;1.60;1.30;;;10.50;83.60;;;;;;5058699;28;20574;-75
2024/02/02 02:34:19;;;;;;;1.50;1.10;;;10.40;83.60;;;;;;5040354;28;20029;-75
2024/02/02 02:36:45;;;;;;;1.77;1.60;;;10.50;83.60;;;;;;5041401;28;20371;-75
2024/02/02 02:39:12;;;;;;;1.70;1.52;;;10.50;83.70;;;;;;5037759;28;20149;-75
2024/02/02 02:41:38;;;;;;;1.73;1.40;;;10.50;83.80;;;;;;5058912;28;20444;-74
2024/02/02 02:44:04;;;;;;;1.77;1.35;;;10.40;83.70;;;;;;5059999;28;20041;-74
2024/02/02 02:46:30;;;;;;;1.70;1.60;;;10.40;83.80;;;;;;5057950;28;20086;-73
2024/02/02 02:48:56;;;;;;;1.65;1.45;;;10.40;84.00;;;;;;5057209;28;20115;-74
2024/02/02 02:51:21;;;;;;;1.73;1.63;;;10.50;83.90;;;;;;5044521;28;20028;-74
2024/02/02 02:53:48;;;;;;;1.60;1.48;;;10.40;83.80;;;;;;5060004;28;20041;-74
2024/02/02 02:56:14;;;;;;;2.40;1.42;;;10.40;83.80;;;;;;5043048;28;20037;-74
2024/02/02 02:58:40;;;;;;;3.35;1.60;;;10.40;83.80;;;;;;5057680;28;20044;-74
2024/02/02 03:01:06;;;;;;;2.22;1.70;;;10.40;84.00;;;;;;5038391;28;20029;-74
2024/02/02 03:03:32;;;;;;;1.80;1.65;;;10.50;84.10;;;;;;5039287;28;20781;-74
2024/02/02 03:05:58;;;;;;;1.58;1.48;;;10.40;84.00;;;;;;5038849;28;20140;-75
2024/02/02 03:08:24;;;;;;;1.52;1.40;;;10.40;83.90;;;;;;5056869;28;20387;-75
2024/02/02 03:10:50;;;;;;;2.67;1.52;;;10.40;83.90;;;;;;5057465;28;20039;-75
2024/02/02 03:13:16;;;;;;;1.83;1.48;;;10.40;83.90;;;;;;5058104;28;20780;-75
2024/02/02 03:15:42;;;;;;;2.38;1.70;;;10.40;83.90;;;;;;5055535;28;20703;-75
2024/02/02 03:18:10;;;;;;;2.95;1.70;;;10.40;83.90;;;;;;5025427;28;20073;-75
2024/02/02 03:20:36;;;;;;;3.13;1.90;;;10.40;83.80;;;;;;5055517;28;20033;-76
2024/02/02 03:23:02;;;;;;;3.00;1.83;;;10.40;83.80;;;;;;5043749;28;20028;-76
2024/02/02 03:25:28;;;;;;;2.92;1.60;;;10.40;83.60;;;;;;5056872;28;20147;-75
2024/02/02 03:27:54;;;;;;;2.72;1.65;;;10.40;83.60;;;;;;5037495;28;20041;-76
2024/02/02 03:30:20;;;;;;;1.90;1.75;;;10.40;83.80;;;;;;5056911;28;20082;-75
2024/02/02 03:32:46;;;;;;;2.10;1.90;;;10.40;83.80;;;;;;5040262;28;20033;-75
2024/02/02 03:35:12;;;;;;;2.67;1.90;;;10.40;83.90;;;;;;5057336;28;20033;-76
2024/02/02 03:37:38;;;;;;;2.50;2.00;;;10.40;83.80;;;;;;5054117;28;20440;-74
2024/02/02 03:40:04;;;;;;;2.33;1.73;;;10.40;83.80;;;;;;5022568;28;20044;-75
2024/02/02 03:42:30;;;;;;;2.20;1.98;;;10.40;83.90;;;;;;5038414;28;20380;-74
2024/02/02 03:44:57;;;;;;;3.03;2.03;;;10.40;83.90;;;;;;5042655;28;20033;-74
2024/02/02 03:47:24;;;;;;;4.10;2.10;;;10.40;83.90;;;;;;5056581;28;20024;-74
2024/02/02 03:49:50;;;;;;;2.55;2.35;;;10.40;84.30;;;;;;5038903;28;20077;-74
2024/02/02 03:52:16;;;;;;;2.85;1.92;;;10.40;83.80;;;;;;5040891;28;20199;-75
2024/02/02 03:54:42;;;;;;;2.20;1.85;;;10.40;84.00;;;;;;5026449;28;20510;-73
2024/02/02 03:57:08;;;;;;;4.03;2.25;;;10.40;84.00;;;;;;5056893;28;20098;-73
2024/02/02 03:59:34;;;;;;;4.05;2.25;;;10.40;84.00;;;;;;5057184;28;20028;-74
2024/02/02 04:02:00;;;;;;;2.78;2.45;;;10.40;84.20;;;;;;5056080;28;20035;-74
2024/02/02 04:04:26;;;;;;;4.35;2.47;;;10.40;84.00;;;;;;5056383;28;20045;-73
2024/02/02 04:06:52;;;;;;;3.22;2.30;;;10.40;83.90;;;;;;5058962;28;20450;-74
2024/02/02 04:09:18;;;;;;;3.92;2.35;;;10.40;83.90;;;;;;5055066;28;20032;-73
2024/02/02 04:11:44;;;;;;;4.50;2.25;;;10.40;84.00;;;;;;5056974;28;20043;-74
2024/02/02 04:14:10;;;;;;;4.03;2.38;;;10.40;84.00;;;;;;5055651;28;20127;-74
2024/02/02 04:16:36;;;;;;;3.10;2.38;;;10.40;84.00;;;;;;5056117;28;20155;-74
2024/02/02 04:19:02;;;;;;;3.53;2.10;;;10.40;83.90;;;;;;5037908;28;20139;-75
2024/02/02 04:21:28;;;;;;;2.58;2.30;;;10.40;83.90;;;;;;5057490;28;21107;-73
2024/02/02 04:23:54;;;;;;;2.63;2.20;;;10.40;84.00;;;;;;5043428;28;20037;-75
2024/02/02 04:26:20;;;;;;;3.13;2.38;;;10.40;83.80;;;;;;5039593;28;20648;-75
2024/02/02 04:28:46;;;;;;;2.83;2.40;;;10.40;83.80;;;;;;5054215;28;20041;-75
2024/02/02 04:31:12;;;;;;;4.18;2.30;;;10.40;83.80;;;;;;5037747;28;20119;-76
2024/02/02 04:33:38;;;;;;;2.38;2.03;;;10.40;83.70;;;;;;5023831;28;20044;-74
2024/02/02 04:36:04;;;;;;;2.33;1.98;;;10.40;84.30;;;;;;5061270;28;20336;-74
2024/02/02 04:38:30;;;;;;;3.25;2.33;;;10.40;83.60;;;;;;5045350;28;20044;-74
2024/02/02 04:40:56;;;;;;;3.50;2.40;;;10.40;83.70;;;;;;5045469;28;20032;-74
2024/02/02 04:43:22;;;;;;;4.43;2.40;;;10.40;83.80;;;;;;5060791;28;20461;-75
2024/02/02 04:45:48;;;;;;;4.78;2.50;;;10.40;84.00;;;;;;5061523;28;20098;-74
2024/02/02 04:48:14;;;;;;;5.18;2.88;;;10.40;84.20;;;;;;5060079;28;20037;-73
2024/02/02 04:50:40;;;;;;;4.38;2.83;;;10.40;84.30;;;;;;5042640;28;20477;-73
2024/02/02 04:53:08;;;;;;;6.78;3.38;;;10.40;84.40;;;;;;5060001;28;20045;-73
2024/02/02 04:55:34;;;;;;;6.05;3.58;;;10.40;84.70;;;;;;5059013;28;20044;-73
2024/02/02 04:58:00;;;;;;;5.32;3.92;;;10.40;84.80;;;;;;5046527;28;20048;-72
2024/02/02 05:00:26;;;;;;;3.95;2.92;;;10.40;85.00;;;;;;5061057;28;20589;-73
2024/02/02 05:02:52;;;;;;;6.72;3.70;;;10.40;85.00;;;;;;5046013;28;20097;-73
2024/02/02 05:05:19;;;;;;;5.65;3.40;;;10.40;85.30;;;;;;5045918;28;20127;-73
2024/02/02 05:07:45;;;;;;;5.05;2.78;;;10.40;85.40;;;;;;5012944;28;20047;-73
2024/02/02 05:10:11;;;;;;;5.45;3.20;;;10.40;85.30;;;;;;5044701;28;20033;-74
2024/02/02 05:12:37;;;;;;;6.63;3.33;;;10.40;85.20;;;;;;5061129;28;20483;-74
2024/02/02 05:15:03;;;;;;;4.65;3.40;;;10.40;86.00;;;;;;5046736;28;20032;-73
2024/02/02 05:17:31;;;;;;;6.95;3.53;;;10.40;85.30;;;;;;5044677;28;20048;-73
2024/02/02 05:19:57;;;;;;;6.00;3.95;;;10.40;85.20;;;;;;5031287;28;20384;-73
2024/02/02 05:22:23;;;;;;;5.50;3.35;;;10.40;85.30;;;;;;5059584;28;20048;-74
2024/02/02 05:24:49;;;;;;;5.97;3.28;;;10.40;85.20;;;;;;5046956;28;20048;-74
2024/02/02 05:27:16;;;;;;;6.25;3.70;;;10.40;85.10;;;;;;5042025;28;20187;-72
2024/02/02 05:29:48;;;;;;;5.10;3.40;;;10.40;85.10;;;;;;5061417;28;20429;-74
2024/02/02 05:32:14;;;;;;;5.68;3.38;;;10.40;85.60;;;;;;5058135;28;20574;-73
2024/02/02 05:34:43;;;;;;;4.68;3.15;;;10.40;85.00;;;;;;5058733;28;20036;-73
2024/02/02 05:37:09;;;;;;;4.35;3.38;;;10.40;85.00;;;;;;5057990;28;20063;-74
2024/02/02 05:39:35;;;;;;;4.13;3.22;;;10.40;84.80;;;;;;5044677;28;20037;-74
2024/02/02 05:42:01;;;;;;;4.65;3.05;;;10.40;84.80;;;;;;5058823;28;20074;-74
2024/02/02 05:44:27;;;;;;;4.22;3.10;;;10.40;84.80;;;;;;5060344;28;20037;-74
2024/02/02 05:46:53;;;;;;;4.70;2.90;;;10.40;84.70;;;;;;5057462;28;20029;-75
2024/02/02 05:49:19;;;;;;;3.50;2.70;;;10.40;84.40;;;;;;5057493;28;20032;-74
2024/02/02 05:51:45;;;;;;;3.30;2.70;;;10.40;84.40;;;;;;5058729;28;20043;-73
2024/02/02 05:54:11;;;;;;;4.60;2.65;;;10.40;84.30;;;;;;5054502;28;20359;-74
2024/02/02 05:56:37;;;;;;;3.05;2.45;;;10.40;84.30;;;;;;5044398;28;20029;-74
2024/02/02 05:59:03;;;;;;;4.15;2.55;;;10.40;84.20;;;;;;5058256;28;20028;-75
2024/02/02 06:01:29;;;;;;;3.33;2.30;;;10.40;84.00;;;;;;5057881;28;20127;-75
2024/02/02 06:03:58;;;;;;;4.13;2.65;;;10.50;83.80;;;;;;5058097;28;20226;-75
2024/02/02 06:06:24;;;;;;;2.90;2.20;;;10.40;83.50;;;;;;5058621;28;20754;-75
2024/02/02 06:08:50;;;;;;;3.40;2.42;;;10.40;83.50;;;;;;5060845;28;20127;-74
2024/02/02 06:11:16;;;;;;;5.50;2.28;;;10.50;83.40;;;;;;5060034;28;20036;-75
2024/02/02 06:13:42;;;;;;;4.35;2.40;;;10.40;83.30;;;;;;5040079;28;20024;-77
2024/02/02 06:16:09;;;;;;;5.03;2.78;;;10.50;83.10;;;;;;5057938;28;20391;-74
2024/02/02 06:18:35;;;;;;;3.60;2.03;;;10.40;83.00;;;;;;5054688;28;20231;-74
2024/02/02 06:21:02;;;;;;;4.22;1.98;;;10.50;82.90;;;;;;5055559;28;20028;-74
2024/02/02 06:23:33;;;;;;;4.47;2.35;;;10.50;83.00;;;;;;5055585;28;20035;-74
2024/02/02 06:26:00;;;;;;;2.60;2.40;;;10.50;83.00;;;;;;5027827;28;20044;-77
2024/02/02 06:28:50;;;;;;;;;;;;;;;;;;;;;
2024/02/02 06:31:25;;;;;;;6.03;2.60;;;10.50;82.90;;;;;;5045724;28;20736;-75
2024/02/02 06:33:51;;;;;;;2.40;2.20;;;10.50;82.90;;;;;;5061655;28;20033;-75
2024/02/02 06:36:17;;;;;;;3.88;2.53;;;10.50;82.90;;;;;;5064106;28;20036;-75
2024/02/02 06:38:43;;;;;;;3.55;2.50;;;10.50;82.90;;;;;;5060903;28;20039;-74
2024/02/02 06:41:10;;;;;;;3.13;2.55;;;10.50;82.90;;;;;;5048683;28;20689;-76
2024/02/02 06:43:37;;;;;;;3.65;2.55;;;10.50;82.90;;;;;;5043943;28;20033;-74
2024/02/02 06:46:03;;;;;;;3.42;2.22;;;10.50;82.80;;;;;;5060626;28;20123;-74
2024/02/02 06:48:29;;;;;;;3.17;2.25;;;10.50;82.70;;;;;;5061173;28;20120;-73
2024/02/02 06:50:55;;;;;;;4.35;2.40;;;10.50;82.60;;;;;;5061666;28;20170;-73
2024/02/02 06:53:21;;;;;;;5.18;2.33;;;10.50;82.60;;;;;;5060812;28;20028;-74
2024/02/02 06:55:49;;;;;;;4.88;2.42;;;10.50;82.50;;;;;;5047503;28;20029;-75
2024/02/02 06:58:42;;;;;;;3.25;2.10;;;10.50;82.40;;;;;;5059314;28;20032;-73
2024/02/02 07:01:10;;;;;;;3.47;2.03;;;10.50;82.30;;;;;;5014377;28;20044;-73
2024/02/02 07:03:37;;;;;;;2.85;2.22;;;10.50;82.20;;;;;;5031555;28;20102;-72
2024/02/02 07:06:05;;;;;;;2.90;2.30;;;10.50;82.30;;;;;;5045271;28;20032;-73
2024/02/02 07:08:31;;;;;;;4.78;2.20;;;10.50;82.40;;;;;;5059672;28;20060;-73
2024/02/02 07:11:20;;;;;;;3.42;2.47;;;10.60;82.90;;;;;;5061459;28;20117;-71
2024/02/02 07:13:48;;;;;;;3.50;2.25;;;10.60;83.10;;;;;;5058238;28;20054;-72
2024/02/02 07:16:26;;;;;;;2.78;1.90;;;10.60;83.10;;;;;;5039909;28;20044;-73
2024/02/02 07:18:52;;;;;;;3.80;1.90;;;10.60;83.00;;;;;;5038560;28;20039;-73
2024/02/02 07:21:18;;;;;;;2.47;2.08;;;10.60;83.20;;;;;;5059355;28;20093;-75
2024/02/02 07:23:45;;;;;;;5.25;2.30;;;10.70;83.20;;;;;;5059643;28;20159;-74
2024/02/02 07:26:40;;;;;;;4.60;2.42;;;10.70;83.20;;;;;;5058233;28;20502;-73
2024/02/02 07:29:32;;;;;;;4.35;2.15;;;10.70;83.20;;;;;;5042924;28;20135;-73
2024/02/02 07:32:03;;;;;;;2.22;1.73;;;10.60;83.00;;;;;;5059157;28;20483;-74
2024/02/02 07:34:42;;;;;;;4.63;2.00;;;10.70;83.00;;;;;;5042221;28;20048;-73
2024/02/02 07:37:19;;;;;;;3.47;2.10;;;10.70;82.90;;;;;;5043129;28;20449;-75
2024/02/02 07:39:45;;;;;;;4.90;2.38;;;10.70;82.80;;;;;;5054869;28;20040;-74
2024/02/02 07:42:11;;;;;;;3.65;1.95;;;10.70;82.70;;;;;;5029892;28;20035;-74
2024/02/02 07:44:37;;;;;;;2.70;1.90;;;10.80;82.80;;;;;;5059465;28;20068;-73
2024/02/02 07:47:03;;;;;;;1.92;1.63;;;10.80;82.60;;;;;;5059295;28;20033;-73
2024/02/02 07:49:29;;;;;;;3.42;1.98;;;10.80;82.70;;;;;;5055920;28;20036;-72
2024/02/02 07:51:55;;;;;;;3.45;2.00;;;10.80;82.80;;;;;;5058683;28;20025;-73
2024/02/02 07:54:21;;;;;;;1.85;1.65;;;10.90;82.60;;;;;;5057132;28;20032;-73
2024/02/02 07:56:47;;;;;;;4.15;1.95;;;10.90;82.40;;;;;;5058711;28;20047;-73
2024/02/02 07:59:13;;;;;;;2.83;1.80;;;10.90;82.10;;;;;;5038862;28;20037;-74
2024/02/02 08:01:39;;;;;;;2.33;1.52;;;10.90;81.80;;;;;;5045823;28;20356;-72
2024/02/02 08:04:05;;;;;;;2.17;1.90;;;10.90;81.70;;;;;;5057801;28;20089;-73
2024/02/02 08:06:31;;;;;;;2.20;1.73;;;10.90;81.80;;;;;;5044615;28;20131;-74
2024/02/02 08:08:57;;;;;;;3.75;1.63;;;11.00;81.70;;;;;;5040946;28;20032;-73
2024/02/02 08:11:25;;;;;;;2.75;1.67;;;11.00;81.70;;;;;;5059956;28;20028;-72
2024/02/02 08:13:51;;;;;;;1.77;1.38;;;11.00;81.70;;;;;;5058749;28;20211;-72
2024/02/02 08:16:17;;;;;;;1.95;1.40;;;11.00;82.10;;;;;;5061739;28;20059;-73
2024/02/02 08:18:43;;;;;;;1.42;1.20;;;11.10;82.00;;;;;;5058839;28;20039;-73
2024/02/02 08:21:09;;;;;;;3.75;1.80;;;11.10;82.50;;;;;;5055072;28;20457;-73
2024/02/02 08:23:36;;;;;;;3.30;1.60;;;11.10;81.90;;;;;;5059239;28;20024;-73
2024/02/02 08:26:02;;;;;;;3.00;1.58;;;11.10;81.60;;;;;;5057869;28;20051;-75
2024/02/02 08:28:28;;;;;;;2.55;1.33;;;11.10;81.70;;;;;;5038913;28;20553;-75
2024/02/02 08:30:54;;;;;;;6.13;1.73;;;11.10;81.30;;;;;;5059265;28;20043;-74
2024/02/02 08:33:20;;;;;;;2.63;1.40;;;11.10;81.10;;;;;;5041967;28;20375;-74
2024/02/02 08:35:46;;;;;;;2.08;1.45;;;11.10;80.90;;;;;;5041560;28;20032;-73
2024/02/02 08:38:14;;;;;;;1.83;1.20;;;11.10;80.80;;;;;;5057927;28;20033;-73
2024/02/02 08:40:43;;;;;;;3.10;1.45;;;11.20;80.50;;;;;;5025825;28;20055;-74
2024/02/02 08:43:20;;;;;;;1.63;1.50;;;11.10;80.40;;;;;;5058193;28;20033;-74
2024/02/02 08:46:09;;;;;;;2.35;1.20;;;11.20;80.20;;;;;;5058722;28;20136;-74
2024/02/02 08:48:36;;;;;;;2.05;1.20;;;11.20;80.00;;;;;;5044110;28;20045;-75
2024/02/02 08:51:13;;;;;;;2.30;1.20;;;11.20;80.00;;;;;;5060447;28;20138;-75
2024/02/02 08:53:40;;;;;;;2.22;1.27;;;11.20;79.50;;;;;;5058499;28;20033;-75
2024/02/02 08:56:11;;;;;;;2.30;1.40;;;11.30;79.80;;;;;;5059588;28;20041;-74
2024/02/02 08:58:38;;;;;;;2.35;1.23;;;11.20;79.90;;;;;;5060245;28;20097;-75
2024/02/02 09:01:05;;;;;;;1.65;1.33;;;11.30;79.90;;;;;;5058356;28;20043;-74
2024/02/02 09:03:44;;;;;;;2.13;1.38;;;11.30;80.00;;;;;;5058029;28;20539;-76
2024/02/02 09:06:42;;;;;;;1.60;1.15;;;11.30;79.60;;;;;;5042859;28;20063;-74
2024/02/02 09:09:11;;;;;;;2.33;0.88;;;11.30;78.70;;;;;;5055799;28;20030;-75
2024/02/02 09:11:38;;;;;;;2.50;1.08;;;11.30;78.50;;;;;;5058557;28;20099;-75
2024/02/02 09:14:10;;;;;;;1.75;1.10;;;11.30;78.30;;;;;;5057652;28;20035;-73
2024/02/02 09:17:05;;;;;;;2.35;0.88;;;11.30;78.40;;;;;;5041767;28;20087;-73
2024/02/02 09:19:53;;;;;;;2.13;1.00;;;11.30;77.80;;;;;;5024762;28;20076;-74
2024/02/02 09:22:19;;;;;;;2.65;0.98;;;11.40;78.00;;;;;;5064932;28;20145;-75
2024/02/02 09:24:51;;;;;;;1.27;0.65;;;11.40;77.90;;;;;;5048689;28;20462;-74
2024/02/02 09:27:39;;;;;;;2.03;0.90;;;11.40;78.10;;;;;;5061464;28;20499;-74
2024/02/02 09:30:11;;;;;;;1.63;0.70;;;11.40;77.90;;;;;;5047925;28;20141;-73
2024/02/02 09:32:37;;;;;;;3.65;1.02;;;11.50;78.30;;;;;;5061573;28;20033;-74
2024/02/02 09:35:26;;;;;;;1.58;0.90;;;11.50;78.20;;;;;;5044363;28;20083;-74
2024/02/02 09:37:52;;;;;;;1.98;0.90;;;11.50;78.30;;;;;;5044200;28;20461;-76
2024/02/02 09:40:57;;;;;;;1.73;0.80;;;11.60;78.50;;;;;;5060656;28;20037;-76
2024/02/02 09:43:34;;;;;;;1.40;0.77;;;11.60;77.70;;;;;;5052454;28;20064;-76
2024/02/02 09:46:20;;;;;;;1.17;0.50;;;11.60;77.00;;;;;;5061813;28;20040;-76
2024/02/02 09:49:08;;;;;;;2.72;0.85;;;11.60;77.30;;;;;;5061077;28;20059;-75
2024/02/02 09:51:38;;;;;;;2.58;0.80;;;11.70;76.70;;;;;;5062455;28;20055;-75
2024/02/02 09:54:35;;;;;;;1.80;0.82;;;11.60;76.10;;;;;;5062165;28;20025;-76
2024/02/02 09:57:31;;;;;;;2.08;0.80;;;11.60;75.80;;;;;;5062719;28;20029;-76
2024/02/02 10:00:02;;;;;;;;;;;11.70;75.20;;;;;;5063990;28;20040;-75
2024/02/02 10:02:35;;;;;;;1.08;0.60;;;11.60;74.70;;;;;;5062420;28;19912;-76
2024/02/02 10:05:32;;;;;;;1.40;0.80;;;11.60;74.50;;;;;;5062161;28;20475;-76
2024/02/02 10:08:05;;;;;;;1.90;0.93;;;11.70;74.70;;;;;;5044424;28;20051;-75
2024/02/02 10:10:59;;;;;;;1.25;0.60;;;11.70;74.50;;;;;;5061886;28;20098;-76
2024/02/02 10:13:40;;;;;;;2.80;0.85;;;11.70;74.60;;;;;;5061898;28;20025;-76
2024/02/02 10:16:18;;;;;;;1.98;0.60;;;11.70;74.50;;;;;;5061657;28;20029;-75
2024/02/02 10:18:53;;;;;;;3.13;1.02;;;11.70;74.60;;;;;;5064344;28;20637;-75
2024/02/02 10:21:28;;;;;;;1.40;0.90;;;11.70;74.10;;;;;;5062827;28;20047;-75
2024/02/02 10:24:26;;;;;;;1.73;0.70;;;11.70;74.00;;;;;;5061563;28;20399;-75
2024/02/02 10:27:14;;;;;;;1.30;0.57;;;11.70;74.20;;;;;;5061920;28;20037;-77
2024/02/02 10:29:40;;;;;;;1.92;1.10;;;11.70;74.20;;;;;;5046940;28;20037;-77
2024/02/02 10:32:34;;;;;;;1.83;0.80;;;11.70;73.90;;;;;;5062345;28;20032;-75
2024/02/02 10:35:25;;;;;;;2.58;0.93;;;11.70;74.30;;;;;;5058409;28;20036;-75
2024/02/02 10:37:51;;;;;;;1.20;0.60;;;11.70;74.30;;;;;;5060620;28;20136;-76
2024/02/02 10:40:33;;;;;;;2.00;0.80;;;11.80;74.50;;;;;;5060711;28;20036;-76
2024/02/02 10:43:06;;;;;;;1.00;0.50;;;11.70;74.30;;;;;;5040366;28;20039;-75
2024/02/02 10:45:49;;;;;;;1.20;0.60;;;11.80;74.50;;;;;;5042197;28;20137;-76
2024/02/02 10:48:52;;;;;;;1.58;0.90;;;11.80;74.50;;;;;;5059193;28;20472;-75
2024/02/02 10:51:31;;;;;;;2.88;0.80;;;11.80;74.50;;;;;;5063633;28;20033;-75
2024/02/02 10:54:13;;;;;;;2.00;0.73;;;11.80;73.80;;;;;;5059641;28;20033;-75
2024/02/02 10:57:00;;;;;;;1.35;0.82;;;11.80;73.70;;;;;;5042636;28;20375;-74
2024/02/02 10:59:53;;;;;;;0.90;0.57;;;11.80;73.20;;;;;;5047207;28;20581;-73
2024/02/02 11:02:38;;;;;;;2.53;0.82;;;11.80;73.40;;;;;;5060519;28;20036;-75
2024/02/02 11:05:16;;;;;;;1.10;0.73;;;11.80;73.10;;;;;;5062409;28;20035;-75
2024/02/02 11:07:51;;;;;;;1.98;0.82;;;11.80;72.80;;;;;;5060036;28;20025;-75
2024/02/02 11:10:24;;;;;;;2.05;1.50;;;11.80;72.40;;;;;;5044424;28;20055;-75
2024/02/02 11:12:57;;;;;;;2.17;1.48;;;11.80;71.90;;;;;;5060960;28;20039;-74
2024/02/02 11:15:38;;;;;;;2.88;1.52;;;11.80;71.90;;;;;;5060957;28;20039;-74
2024/02/02 11:18:10;;;;;;;1.50;1.10;;;11.80;71.90;;;;;;5025877;28;20053;-75
2024/02/02 11:21:24;;;;;;;2.67;1.30;;;11.80;71.80;;;;;;5043913;28;20566;-75
2024/02/02 11:24:14;;;;;;;2.22;1.02;;;11.80;70.90;;;;;;5025662;28;20046;-75
2024/02/02 11:27:02;;;;;;;1.45;0.77;;;11.80;70.50;;;;;;5040298;28;20044;-75
2024/02/02 11:29:54;;;;;;;3.15;1.00;;;11.90;70.20;;;;;;5039372;28;20037;-74
2024/02/02 11:32:23;;;;;;;3.97;0.60;;;11.80;69.50;;;;;;5041361;28;20072;-74
2024/02/02 11:35:20;;;;;;;1.40;1.05;;;11.90;69.30;;;;;;5040526;28;20037;-74
2024/02/02 11:38:16;;;;;;;3.08;1.05;;;11.90;69.20;;;;;;5013457;28;20119;-74
2024/02/02 11:40:43;;;;;;;1.95;0.85;;;11.90;68.40;;;;;;5038610;28;20473;-74
2024/02/02 11:43:11;;;;;;;2.90;0.65;;;11.90;68.70;;;;;;5039675;28;20128;-74
2024/02/02 11:45:42;;;;;;;1.60;0.90;;;11.90;68.30;;;;;;5041579;28;20090;-74
2024/02/02 11:48:31;;;;;;;1.40;0.63;;;11.90;68.10;;;;;;5024144;28;20041;-74
2024/02/02 11:50:57;;;;;;;1.48;0.57;;;11.90;68.30;;;;;;5039757;28;20468;-74
2024/02/02 11:53:54;;;;;;;1.73;0.80;;;11.90;68.40;;;;;;5039652;28;20047;-74
2024/02/02 11:56:29;;;;;;;1.35;0.60;;;11.90;68.50;;;;;;5055251;28;20400;-74
2024/02/02 11:59:27;;;;;;;2.40;0.65;;;11.90;68.30;;;;;;5040663;28;20095;-74
2024/02/02 12:02:08;;;;;;;1.80;0.75;;;11.90;68.10;;;;;;5042547;28;20036;-74
2024/02/02 12:05:00;;;;;;;1.30;0.63;;;11.90;68.10;;;;;;5037696;28;20037;-74
2024/02/02 12:07:44;;;;;;;1.25;0.85;;;11.90;68.10;;;;;;5039731;28;20534;-74
2024/02/02 12:10:16;;;;;;;0.93;0.73;;;11.80;67.80;;;;;;5039912;28;20045;-74
2024/02/02 12:12:46;;;;;;;1.75;0.70;;;11.90;68.50;;;;;;5020172;28;20033;-74
2024/02/02 12:15:14;;;;;;;3.78;0.80;;;11.80;67.30;;;;;;5042460;28;20029;-74
2024/02/02 12:17:40;;;;;;;1.65;0.50;;;11.80;67.10;;;;;;5046444;28;20494;-74
2024/02/02 12:20:09;;;;;;;2.28;0.93;;;11.80;66.80;;;;;;5061224;28;20033;-75
2024/02/02 12:22:36;;;;;;;1.65;0.70;;;11.80;67.10;;;;;;5045812;28;20036;-74
2024/02/02 12:25:04;;;;;;;1.55;0.60;;;11.80;67.70;;;;;;5029585;28;20055;-74
2024/02/02 12:27:31;;;;;;;1.63;0.60;;;11.80;67.90;;;;;;5059409;28;20526;-74
2024/02/02 12:29:57;;;;;;;2.13;0.80;;;11.80;67.30;;;;;;5024254;28;20036;-74
2024/02/02 12:32:23;;;;;;;3.08;0.75;;;11.70;67.20;;;;;;5047281;28;20123;-74
2024/02/02 12:34:50;;;;;;;2.67;0.70;;;11.70;66.80;;;;;;5045593;28;20060;-73
2024/02/02 12:37:16;;;;;;;2.28;0.80;;;11.70;66.90;;;;;;5041197;28;20044;-75
2024/02/02 12:39:42;;;;;;;1.70;0.60;;;11.70;66.70;;;;;;5041802;28;20032;-74
2024/02/02 12:42:10;;;;;;;2.15;0.85;;;11.70;66.40;;;;;;5058339;28;20463;-75
2024/02/02 12:44:36;;;;;;;1.08;0.65;;;11.70;65.80;;;;;;5046607;28;20047;-73
2024/02/02 12:47:04;;;;;;;1.70;0.63;;;11.60;66.00;;;;;;5060035;28;20633;-73
2024/02/02 12:49:31;;;;;;;1.65;0.63;;;11.60;66.40;;;;;;5058504;28;20449;-74
2024/02/02 12:51:57;;;;;;;1.58;0.95;;;11.70;66.50;;;;;;5040412;28;20032;-76
2024/02/02 12:54:23;;;;;;;3.13;0.93;;;11.60;66.80;;;;;;5033368;28;20036;-75
2024/02/02 12:56:50;;;;;;;2.15;0.85;;;11.60;66.30;;;;;;5016485;28;20541;-75
2024/02/02 12:59:17;;;;;;;1.65;0.80;;;11.60;66.60;;;;;;5028313;28;20028;-75
2024/02/02 13:01:50;;;;;;;2.17;0.73;;;11.60;67.10;;;;;;5033009;28;20123;-76
2024/02/02 13:04:17;;;;;;;1.48;0.77;;;11.60;67.00;;;;;;5063563;28;20109;-76